sensor_id;sensor_type;location;lat;lon;timestamp;temperature;humidity
73780;SHT30;62093;37.614;15.072;2022-12-07T00:02:04;17.82;64.86
73780;SHT30;62093;37.614;15.072;2022-12-07T00:04:39;17.82;64.81
73780;SHT30;62093;37.614;15.072;2022-12-07T00:07:12;17.83;64.78
73780;SHT30;62093;37.614;15.072;2022-12-07T00:09:49;17.79;64.78
73780;SHT30;62093;37.614;15.072;2022-12-07T00:12:29;17.82;64.75
73780;SHT30;62093;37.614;15.072;2022-12-07T00:14:55;17.75;64.93
73780;SHT30;62093;37.614;15.072;2022-12-07T00:17:35;17.78;65.01
73780;SHT30;62093;37.614;15.072;2022-12-07T00:20:07;17.72;64.80
73780;SHT30;62093;37.614;15.072;2022-12-07T00:22:42;17.78;64.83
73780;SHT30;62093;37.614;15.072;2022-12-07T00:25:15;17.76;64.65
73780;SHT30;62093;37.614;15.072;2022-12-07T00:27:56;17.72;64.66
73780;SHT30;62093;37.614;15.072;2022-12-07T00:30:41;17.76;64.63
73780;SHT30;62093;37.614;15.072;2022-12-07T00:33:13;17.79;64.46
73780;SHT30;62093;37.614;15.072;2022-12-07T00:35:43;17.82;64.43
73780;SHT30;62093;37.614;15.072;2022-12-07T00:38:17;17.79;64.34
73780;SHT30;62093;37.614;15.072;2022-12-07T00:41:05;17.75;64.34
73780;SHT30;62093;37.614;15.072;2022-12-07T00:43:47;17.73;64.48
73780;SHT30;62093;37.614;15.072;2022-12-07T00:46:17;17.75;64.53
73780;SHT30;62093;37.614;15.072;2022-12-07T00:48:58;17.75;64.60
73780;SHT30;62093;37.614;15.072;2022-12-07T00:51:33;17.73;64.51
73780;SHT30;62093;37.614;15.072;2022-12-07T00:54:03;17.69;64.43
73780;SHT30;62093;37.614;15.072;2022-12-07T00:56:41;17.68;64.23
73780;SHT30;62093;37.614;15.072;2022-12-07T00:59:12;17.68;64.36
73780;SHT30;62093;37.614;15.072;2022-12-07T01:01:47;17.76;64.52
73780;SHT30;62093;37.614;15.072;2022-12-07T01:04:16;17.69;64.47
73780;SHT30;62093;37.614;15.072;2022-12-07T01:07:14;17.75;64.56
73780;SHT30;62093;37.614;15.072;2022-12-07T01:09:43;17.71;64.72
73780;SHT30;62093;37.614;15.072;2022-12-07T01:12:12;17.72;64.77
73780;SHT30;62093;37.614;15.072;2022-12-07T01:14:48;17.69;64.81
73780;SHT30;62093;37.614;15.072;2022-12-07T01:17:20;17.69;64.66
73780;SHT30;62093;37.614;15.072;2022-12-07T01:19:49;17.63;64.86
73780;SHT30;62093;37.614;15.072;2022-12-07T01:22:17;17.66;64.82
73780;SHT30;62093;37.614;15.072;2022-12-07T01:24:44;17.75;64.74
73780;SHT30;62093;37.614;15.072;2022-12-07T01:27:16;17.73;64.79
73780;SHT30;62093;37.614;15.072;2022-12-07T01:29:50;17.69;64.75
73780;SHT30;62093;37.614;15.072;2022-12-07T01:32:20;17.72;64.73
73780;SHT30;62093;37.614;15.072;2022-12-07T01:34:58;17.72;64.58
73780;SHT30;62093;37.614;15.072;2022-12-07T01:37:36;17.69;64.74
73780;SHT30;62093;37.614;15.072;2022-12-07T01:40:10;17.69;64.93
73780;SHT30;62093;37.614;15.072;2022-12-07T01:42:40;17.69;64.66
73780;SHT30;62093;37.614;15.072;2022-12-07T01:47:53;17.71;64.68
73780;SHT30;62093;37.614;15.072;2022-12-07T01:50:26;17.71;64.74
73780;SHT30;62093;37.614;15.072;2022-12-07T01:52:58;17.69;64.51
73780;SHT30;62093;37.614;15.072;2022-12-07T01:55:42;17.69;64.66
73780;SHT30;62093;37.614;15.072;2022-12-07T01:58:11;17.71;64.34
73780;SHT30;62093;37.614;15.072;2022-12-07T02:00:43;17.63;64.67
73780;SHT30;62093;37.614;15.072;2022-12-07T02:05:43;17.65;64.67
73780;SHT30;62093;37.614;15.072;2022-12-07T02:08:14;17.61;64.48
73780;SHT30;62093;37.614;15.072;2022-12-07T02:10:55;17.68;64.55
73780;SHT30;62093;37.614;15.072;2022-12-07T02:13:37;17.65;64.34
73780;SHT30;62093;37.614;15.072;2022-12-07T02:16:24;17.65;64.28
73780;SHT30;62093;37.614;15.072;2022-12-07T02:28:32;17.66;64.29
73780;SHT30;62093;37.614;15.072;2022-12-07T02:31:20;17.62;63.94
73780;SHT30;62093;37.614;15.072;2022-12-07T02:37:38;17.66;64.33
73780;SHT30;62093;37.614;15.072;2022-12-07T02:40:14;17.59;64.33
73780;SHT30;62093;37.614;15.072;2022-12-07T02:43:27;17.59;64.30
73780;SHT30;62093;37.614;15.072;2022-12-07T02:46:09;17.63;64.19
73780;SHT30;62093;37.614;15.072;2022-12-07T02:48:46;17.61;64.24
73780;SHT30;62093;37.614;15.072;2022-12-07T02:54:16;17.61;64.35
73780;SHT30;62093;37.614;15.072;2022-12-07T03:16:09;17.62;64.76
73780;SHT30;62093;37.614;15.072;2022-12-07T03:19:03;17.54;64.87
73780;SHT30;62093;37.614;15.072;2022-12-07T03:21:40;17.56;64.52
73780;SHT30;62093;37.614;15.072;2022-12-07T03:24:20;17.62;64.46
73780;SHT30;62093;37.614;15.072;2022-12-07T03:26:58;17.59;64.25
73780;SHT30;62093;37.614;15.072;2022-12-07T03:29:40;17.59;64.39
73780;SHT30;62093;37.614;15.072;2022-12-07T03:32:22;17.58;64.62
73780;SHT30;62093;37.614;15.072;2022-12-07T03:35:18;17.56;64.47
73780;SHT30;62093;37.614;15.072;2022-12-07T03:38:02;17.55;64.12
73780;SHT30;62093;37.614;15.072;2022-12-07T03:41:16;17.61;64.19
73780;SHT30;62093;37.614;15.072;2022-12-07T03:43:59;17.62;64.07
73780;SHT30;62093;37.614;15.072;2022-12-07T03:46:58;17.58;64.50
73780;SHT30;62093;37.614;15.072;2022-12-07T03:52:35;17.51;64.63
73780;SHT30;62093;37.614;15.072;2022-12-07T03:55:29;17.61;64.11
73780;SHT30;62093;37.614;15.072;2022-12-07T03:58:07;17.56;64.04
73780;SHT30;62093;37.614;15.072;2022-12-07T04:00:39;17.54;63.99
73780;SHT30;62093;37.614;15.072;2022-12-07T04:03:21;17.55;63.93
73780;SHT30;62093;37.614;15.072;2022-12-07T04:05:51;17.49;63.72
73780;SHT30;62093;37.614;15.072;2022-12-07T04:08:23;17.48;64.39
73780;SHT30;62093;37.614;15.072;2022-12-07T04:10:59;17.51;63.99
73780;SHT30;62093;37.614;15.072;2022-12-07T04:13:46;17.54;64.10
73780;SHT30;62093;37.614;15.072;2022-12-07T04:16:52;17.52;64.35
73780;SHT30;62093;37.614;15.072;2022-12-07T04:19:34;17.48;64.13
73780;SHT30;62093;37.614;15.072;2022-12-07T04:22:07;17.49;64.20
73780;SHT30;62093;37.614;15.072;2022-12-07T04:24:33;17.49;64.12
73780;SHT30;62093;37.614;15.072;2022-12-07T04:27:12;17.48;63.76
73780;SHT30;62093;37.614;15.072;2022-12-07T04:29:44;17.44;64.16
73780;SHT30;62093;37.614;15.072;2022-12-07T04:32:14;17.48;64.30
73780;SHT30;62093;37.614;15.072;2022-12-07T04:34:44;17.54;64.01
73780;SHT30;62093;37.614;15.072;2022-12-07T04:37:10;17.51;64.34
73780;SHT30;62093;37.614;15.072;2022-12-07T04:39:56;17.52;64.19
73780;SHT30;62093;37.614;15.072;2022-12-07T04:42:33;17.54;64.26
73780;SHT30;62093;37.614;15.072;2022-12-07T04:45:03;17.42;64.39
73780;SHT30;62093;37.614;15.072;2022-12-07T04:47:51;17.46;64.18
73780;SHT30;62093;37.614;15.072;2022-12-07T04:50:26;17.46;64.15
73780;SHT30;62093;37.614;15.072;2022-12-07T04:52:55;17.46;63.77
73780;SHT30;62093;37.614;15.072;2022-12-07T04:55:33;17.55;63.77
73780;SHT30;62093;37.614;15.072;2022-12-07T04:58:14;17.44;63.87
73780;SHT30;62093;37.614;15.072;2022-12-07T05:00:48;17.46;64.11
73780;SHT30;62093;37.614;15.072;2022-12-07T05:03:17;17.39;64.54
73780;SHT30;62093;37.614;15.072;2022-12-07T05:05:47;17.36;64.42
73780;SHT30;62093;37.614;15.072;2022-12-07T05:08:13;17.36;64.82
73780;SHT30;62093;37.614;15.072;2022-12-07T05:10:45;17.38;64.61
73780;SHT30;62093;37.614;15.072;2022-12-07T05:13:21;17.48;64.13
73780;SHT30;62093;37.614;15.072;2022-12-07T05:15:50;17.38;64.13
73780;SHT30;62093;37.614;15.072;2022-12-07T05:18:20;17.39;64.19
73780;SHT30;62093;37.614;15.072;2022-12-07T05:21:08;17.44;64.27
73780;SHT30;62093;37.614;15.072;2022-12-07T05:23:37;17.39;64.33
73780;SHT30;62093;37.614;15.072;2022-12-07T05:26:13;17.39;64.27
73780;SHT30;62093;37.614;15.072;2022-12-07T05:28:40;17.41;64.31
73780;SHT30;62093;37.614;15.072;2022-12-07T05:31:15;17.45;64.22
73780;SHT30;62093;37.614;15.072;2022-12-07T05:33:45;17.38;64.04
73780;SHT30;62093;37.614;15.072;2022-12-07T05:36:14;17.39;63.88
73780;SHT30;62093;37.614;15.072;2022-12-07T05:38:41;17.38;64.18
73780;SHT30;62093;37.614;15.072;2022-12-07T05:41:20;17.41;64.46
73780;SHT30;62093;37.614;15.072;2022-12-07T05:44:08;17.44;64.08
73780;SHT30;62093;37.614;15.072;2022-12-07T05:46:34;17.41;64.07
73780;SHT30;62093;37.614;15.072;2022-12-07T05:49:07;17.42;64.29
73780;SHT30;62093;37.614;15.072;2022-12-07T05:51:43;17.45;63.78
73780;SHT30;62093;37.614;15.072;2022-12-07T05:54:12;17.39;63.99
73780;SHT30;62093;37.614;15.072;2022-12-07T05:56:47;17.41;64.30
73780;SHT30;62093;37.614;15.072;2022-12-07T05:59:17;17.39;64.39
73780;SHT30;62093;37.614;15.072;2022-12-07T06:01:57;17.45;64.11
73780;SHT30;62093;37.614;15.072;2022-12-07T06:04:32;17.41;64.12
73780;SHT30;62093;37.614;15.072;2022-12-07T06:07:11;17.38;63.93
73780;SHT30;62093;37.614;15.072;2022-12-07T06:09:47;17.44;64.49
73780;SHT30;62093;37.614;15.072;2022-12-07T06:12:35;17.44;64.31
73780;SHT30;62093;37.614;15.072;2022-12-07T06:15:02;17.41;64.34
73780;SHT30;62093;37.614;15.072;2022-12-07T06:17:45;17.38;64.07
73780;SHT30;62093;37.614;15.072;2022-12-07T06:20:22;17.42;64.10
73780;SHT30;62093;37.614;15.072;2022-12-07T06:22:54;17.35;63.96
73780;SHT30;62093;37.614;15.072;2022-12-07T06:25:23;17.38;64.20
73780;SHT30;62093;37.614;15.072;2022-12-07T06:27:53;17.41;63.81
73780;SHT30;62093;37.614;15.072;2022-12-07T06:30:27;17.48;64.25
73780;SHT30;62093;37.614;15.072;2022-12-07T06:33:08;17.54;64.20
73780;SHT30;62093;37.614;15.072;2022-12-07T06:35:43;17.54;64.42
73780;SHT30;62093;37.614;15.072;2022-12-07T06:38:12;17.48;64.47
73780;SHT30;62093;37.614;15.072;2022-12-07T06:40:47;17.44;64.23
73780;SHT30;62093;37.614;15.072;2022-12-07T06:43:25;17.46;64.08
73780;SHT30;62093;37.614;15.072;2022-12-07T06:46:01;17.51;64.30
73780;SHT30;62093;37.614;15.072;2022-12-07T06:48:31;17.45;64.33
73780;SHT30;62093;37.614;15.072;2022-12-07T06:51:06;17.52;64.40
73780;SHT30;62093;37.614;15.072;2022-12-07T06:53:42;17.48;64.30
73780;SHT30;62093;37.614;15.072;2022-12-07T06:56:17;17.51;64.15
73780;SHT30;62093;37.614;15.072;2022-12-07T06:59:01;17.52;63.91
73780;SHT30;62093;37.614;15.072;2022-12-07T07:01:36;17.46;63.92
73780;SHT30;62093;37.614;15.072;2022-12-07T07:04:05;17.51;63.67
73780;SHT30;62093;37.614;15.072;2022-12-07T07:06:46;17.52;63.99
73780;SHT30;62093;37.614;15.072;2022-12-07T07:09:13;17.46;63.82
73780;SHT30;62093;37.614;15.072;2022-12-07T07:11:42;17.48;64.26
73780;SHT30;62093;37.614;15.072;2022-12-07T07:14:17;17.49;63.81
73780;SHT30;62093;37.614;15.072;2022-12-07T07:17:02;17.58;64.28
73780;SHT30;62093;37.614;15.072;2022-12-07T07:19:40;17.58;63.81
73780;SHT30;62093;37.614;15.072;2022-12-07T07:22:07;17.51;64.72
73780;SHT30;62093;37.614;15.072;2022-12-07T07:24:41;17.45;64.72
73780;SHT30;62093;37.614;15.072;2022-12-07T07:27:17;17.42;64.89
73780;SHT30;62093;37.614;15.072;2022-12-07T07:30:02;17.42;65.13
73780;SHT30;62093;37.614;15.072;2022-12-07T07:32:48;17.44;64.99
73780;SHT30;62093;37.614;15.072;2022-12-07T07:35:19;17.42;65.34
73780;SHT30;62093;37.614;15.072;2022-12-07T07:37:57;17.46;65.26
73780;SHT30;62093;37.614;15.072;2022-12-07T07:40:30;17.52;65.21
73780;SHT30;62093;37.614;15.072;2022-12-07T07:43:03;17.51;65.16
73780;SHT30;62093;37.614;15.072;2022-12-07T07:45:35;17.55;65.52
73780;SHT30;62093;37.614;15.072;2022-12-07T07:48:11;17.54;65.35
73780;SHT30;62093;37.614;15.072;2022-12-07T07:50:43;17.56;65.52
73780;SHT30;62093;37.614;15.072;2022-12-07T07:53:22;17.56;65.52
73780;SHT30;62093;37.614;15.072;2022-12-07T07:55:57;17.58;65.69
73780;SHT30;62093;37.614;15.072;2022-12-07T07:58:41;17.58;65.85
73780;SHT30;62093;37.614;15.072;2022-12-07T08:01:12;17.79;66.38
73780;SHT30;62093;37.614;15.072;2022-12-07T08:03:49;18.65;62.62
73780;SHT30;62093;37.614;15.072;2022-12-07T08:06:19;17.92;64.68
73780;SHT30;62093;37.614;15.072;2022-12-07T08:08:48;17.69;65.40
73780;SHT30;62093;37.614;15.072;2022-12-07T08:11:17;17.63;65.73
73780;SHT30;62093;37.614;15.072;2022-12-07T08:13:47;17.59;65.89
73780;SHT30;62093;37.614;15.072;2022-12-07T08:16:16;17.65;65.74
73780;SHT30;62093;37.614;15.072;2022-12-07T08:18:54;17.61;66.01
73780;SHT30;62093;37.614;15.072;2022-12-07T08:21:28;17.61;66.07
73780;SHT30;62093;37.614;15.072;2022-12-07T08:24:00;17.73;65.96
73780;SHT30;62093;37.614;15.072;2022-12-07T08:26:30;17.69;65.90
73780;SHT30;62093;37.614;15.072;2022-12-07T08:29:09;17.66;65.96
73780;SHT30;62093;37.614;15.072;2022-12-07T08:31:42;17.68;66.19
73780;SHT30;62093;37.614;15.072;2022-12-07T08:34:23;17.68;66.19
73780;SHT30;62093;37.614;15.072;2022-12-07T08:36:59;17.65;66.38
73780;SHT30;62093;37.614;15.072;2022-12-07T08:39:25;17.68;66.32
73780;SHT30;62093;37.614;15.072;2022-12-07T08:41:52;17.72;66.29
73780;SHT30;62093;37.614;15.072;2022-12-07T08:44:21;17.73;66.25
73780;SHT30;62093;37.614;15.072;2022-12-07T08:47:02;17.71;66.08
73780;SHT30;62093;37.614;15.072;2022-12-07T08:49:49;17.72;66.14
73780;SHT30;62093;37.614;15.072;2022-12-07T08:52:32;17.69;66.02
73780;SHT30;62093;37.614;15.072;2022-12-07T08:55:10;17.73;65.95
73780;SHT30;62093;37.614;15.072;2022-12-07T08:57:42;17.75;66.00
73780;SHT30;62093;37.614;15.072;2022-12-07T09:00:09;17.73;65.94
73780;SHT30;62093;37.614;15.072;2022-12-07T09:02:38;17.75;65.87
73780;SHT30;62093;37.614;15.072;2022-12-07T09:05:08;17.75;65.74
73780;SHT30;62093;37.614;15.072;2022-12-07T09:08:02;17.78;65.73
73780;SHT30;62093;37.614;15.072;2022-12-07T09:10:58;17.81;65.64
73780;SHT30;62093;37.614;15.072;2022-12-07T09:13:40;17.81;65.60
73780;SHT30;62093;37.614;15.072;2022-12-07T09:16:14;17.82;65.57
73780;SHT30;62093;37.614;15.072;2022-12-07T09:18:47;17.81;65.61
73780;SHT30;62093;37.614;15.072;2022-12-07T09:21:24;17.83;65.58
73780;SHT30;62093;37.614;15.072;2022-12-07T09:23:58;17.82;65.70
73780;SHT30;62093;37.614;15.072;2022-12-07T09:26:32;17.79;65.55
73780;SHT30;62093;37.614;15.072;2022-12-07T09:29:13;17.82;65.60
73780;SHT30;62093;37.614;15.072;2022-12-07T09:31:42;17.83;65.58
73780;SHT30;62093;37.614;15.072;2022-12-07T09:34:08;17.83;65.54
73780;SHT30;62093;37.614;15.072;2022-12-07T09:36:34;17.85;65.48
73780;SHT30;62093;37.614;15.072;2022-12-07T09:39:18;17.83;65.43
73780;SHT30;62093;37.614;15.072;2022-12-07T09:41:56;17.83;65.43
73780;SHT30;62093;37.614;15.072;2022-12-07T09:44:39;17.86;65.42
73780;SHT30;62093;37.614;15.072;2022-12-07T09:47:14;17.86;65.36
73780;SHT30;62093;37.614;15.072;2022-12-07T09:49:43;17.83;65.33
73780;SHT30;62093;37.614;15.072;2022-12-07T09:52:27;17.86;65.28
73780;SHT30;62093;37.614;15.072;2022-12-07T09:54:57;17.86;65.31
73780;SHT30;62093;37.614;15.072;2022-12-07T09:57:37;17.86;65.20
73780;SHT30;62093;37.614;15.072;2022-12-07T10:00:16;17.86;65.29
73780;SHT30;62093;37.614;15.072;2022-12-07T10:03:02;17.85;65.26
73780;SHT30;62093;37.614;15.072;2022-12-07T10:05:42;17.87;65.21
73780;SHT30;62093;37.614;15.072;2022-12-07T10:08:11;17.87;65.07
73780;SHT30;62093;37.614;15.072;2022-12-07T10:10:52;17.90;64.65
73780;SHT30;62093;37.614;15.072;2022-12-07T10:13:21;17.85;64.89
73780;SHT30;62093;37.614;15.072;2022-12-07T10:15:56;17.85;64.86
73780;SHT30;62093;37.614;15.072;2022-12-07T10:18:38;17.81;64.79
73780;SHT30;62093;37.614;15.072;2022-12-07T10:21:19;17.85;64.73
73780;SHT30;62093;37.614;15.072;2022-12-07T10:24:18;17.82;64.63
73780;SHT30;62093;37.614;15.072;2022-12-07T10:27:16;17.82;64.59
73780;SHT30;62093;37.614;15.072;2022-12-07T10:29:53;17.81;64.80
73780;SHT30;62093;37.614;15.072;2022-12-07T10:32:36;17.82;64.54
73780;SHT30;62093;37.614;15.072;2022-12-07T10:35:27;17.83;64.35
73780;SHT30;62093;37.614;15.072;2022-12-07T10:37:58;17.83;64.25
73780;SHT30;62093;37.614;15.072;2022-12-07T10:40:33;17.83;64.28
73780;SHT30;62093;37.614;15.072;2022-12-07T10:48:52;17.85;64.31
73780;SHT30;62093;37.614;15.072;2022-12-07T10:55:08;17.86;64.21
73780;SHT30;62093;37.614;15.072;2022-12-07T11:07:01;17.87;64.21
73780;SHT30;62093;37.614;15.072;2022-12-07T11:15:59;17.89;64.18
73780;SHT30;62093;37.614;15.072;2022-12-07T11:24:18;17.89;64.00
73780;SHT30;62093;37.614;15.072;2022-12-07T11:26:58;17.90;63.90
73780;SHT30;62093;37.614;15.072;2022-12-07T11:29:55;17.90;64.07
73780;SHT30;62093;37.614;15.072;2022-12-07T11:41:11;17.93;63.88
73780;SHT30;62093;37.614;15.072;2022-12-07T11:44:06;17.93;63.84
73780;SHT30;62093;37.614;15.072;2022-12-07T11:47:01;17.92;63.95
73780;SHT30;62093;37.614;15.072;2022-12-07T12:06:39;17.93;64.00
73780;SHT30;62093;37.614;15.072;2022-12-07T12:15:37;17.95;63.98
73780;SHT30;62093;37.614;15.072;2022-12-07T12:18:25;17.97;63.88
73780;SHT30;62093;37.614;15.072;2022-12-07T12:21:14;17.95;63.76
73780;SHT30;62093;37.614;15.072;2022-12-07T12:23:54;17.97;64.02
73780;SHT30;62093;37.614;15.072;2022-12-07T12:26:30;17.96;63.94
73780;SHT30;62093;37.614;15.072;2022-12-07T12:29:34;17.96;63.98
73780;SHT30;62093;37.614;15.072;2022-12-07T12:32:16;17.97;63.98
73780;SHT30;62093;37.614;15.072;2022-12-07T12:37:41;18.00;63.89
73780;SHT30;62093;37.614;15.072;2022-12-07T12:42:56;17.97;63.87
73780;SHT30;62093;37.614;15.072;2022-12-07T12:45:27;17.97;63.87
73780;SHT30;62093;37.614;15.072;2022-12-07T12:48:02;17.97;63.94
73780;SHT30;62093;37.614;15.072;2022-12-07T12:50:36;17.97;63.93
73780;SHT30;62093;37.614;15.072;2022-12-07T13:10:38;17.97;63.82
73780;SHT30;62093;37.614;15.072;2022-12-07T13:18:46;17.97;63.80
73780;SHT30;62093;37.614;15.072;2022-12-07T13:26:36;18.00;63.69
73780;SHT30;62093;37.614;15.072;2022-12-07T13:29:21;18.02;63.52
73780;SHT30;62093;37.614;15.072;2022-12-07T13:31:58;18.02;63.68
73780;SHT30;62093;37.614;15.072;2022-12-07T13:37:01;18.00;63.58
73780;SHT30;62093;37.614;15.072;2022-12-07T13:39:50;18.00;63.64
73780;SHT30;62093;37.614;15.072;2022-12-07T13:43:03;18.00;63.32
73780;SHT30;62093;37.614;15.072;2022-12-07T13:45:33;18.00;63.57
73780;SHT30;62093;37.614;15.072;2022-12-07T13:51:01;18.00;63.51
73780;SHT30;62093;37.614;15.072;2022-12-07T13:53:50;18.02;63.54
73780;SHT30;62093;37.614;15.072;2022-12-07T13:56:31;18.02;63.51
73780;SHT30;62093;37.614;15.072;2022-12-07T13:58:58;18.02;63.52
73780;SHT30;62093;37.614;15.072;2022-12-07T14:01:31;17.99;63.46
73780;SHT30;62093;37.614;15.072;2022-12-07T14:04:40;18.02;63.47
73780;SHT30;62093;37.614;15.072;2022-12-07T14:07:30;18.03;63.48
73780;SHT30;62093;37.614;15.072;2022-12-07T14:10:22;17.99;63.51
73780;SHT30;62093;37.614;15.072;2022-12-07T14:12:58;18.00;63.49
73780;SHT30;62093;37.614;15.072;2022-12-07T14:15:34;18.00;63.52
73780;SHT30;62093;37.614;15.072;2022-12-07T14:18:04;18.00;63.41
73780;SHT30;62093;37.614;15.072;2022-12-07T14:20:38;18.00;63.40
73780;SHT30;62093;37.614;15.072;2022-12-07T14:23:27;17.97;63.38
73780;SHT30;62093;37.614;15.072;2022-12-07T14:26:20;18.00;63.32
73780;SHT30;62093;37.614;15.072;2022-12-07T14:29:18;18.00;63.38
73780;SHT30;62093;37.614;15.072;2022-12-07T14:31:48;17.97;63.37
73780;SHT30;62093;37.614;15.072;2022-12-07T14:34:35;18.00;63.42
73780;SHT30;62093;37.614;15.072;2022-12-07T14:37:10;18.00;63.46
73780;SHT30;62093;37.614;15.072;2022-12-07T14:39:51;17.97;63.40
73780;SHT30;62093;37.614;15.072;2022-12-07T14:42:23;17.99;63.47
73780;SHT30;62093;37.614;15.072;2022-12-07T14:45:19;17.99;63.51
73780;SHT30;62093;37.614;15.072;2022-12-07T14:47:55;17.97;63.46
73780;SHT30;62093;37.614;15.072;2022-12-07T14:50:40;17.97;63.57
73780;SHT30;62093;37.614;15.072;2022-12-07T14:53:27;17.99;63.46
73780;SHT30;62093;37.614;15.072;2022-12-07T14:56:13;17.96;63.49
73780;SHT30;62093;37.614;15.072;2022-12-07T14:58:44;17.96;63.46
73780;SHT30;62093;37.614;15.072;2022-12-07T15:01:29;17.95;63.55
73780;SHT30;62093;37.614;15.072;2022-12-07T15:04:02;17.96;63.53
73780;SHT30;62093;37.614;15.072;2022-12-07T15:06:33;17.92;63.61
73780;SHT30;62093;37.614;15.072;2022-12-07T15:09:15;17.95;63.63
73780;SHT30;62093;37.614;15.072;2022-12-07T15:11:50;17.95;63.52
73780;SHT30;62093;37.614;15.072;2022-12-07T15:14:16;17.93;63.68
73780;SHT30;62093;37.614;15.072;2022-12-07T15:16:51;17.95;63.53
73780;SHT30;62093;37.614;15.072;2022-12-07T15:19:22;17.92;63.55
73780;SHT30;62093;37.614;15.072;2022-12-07T15:21:53;17.93;63.56
73780;SHT30;62093;37.614;15.072;2022-12-07T15:24:19;17.93;63.66
73780;SHT30;62093;37.614;15.072;2022-12-07T15:26:57;17.90;63.66
73780;SHT30;62093;37.614;15.072;2022-12-07T15:29:32;17.90;63.60
73780;SHT30;62093;37.614;15.072;2022-12-07T15:32:07;17.89;63.72
73780;SHT30;62093;37.614;15.072;2022-12-07T15:34:39;17.90;63.66
73780;SHT30;62093;37.614;15.072;2022-12-07T15:37:08;17.87;63.73
73780;SHT30;62093;37.614;15.072;2022-12-07T15:39:55;17.87;63.74
73780;SHT30;62093;37.614;15.072;2022-12-07T15:42:24;17.87;63.79
73780;SHT30;62093;37.614;15.072;2022-12-07T15:44:56;17.87;63.79
73780;SHT30;62093;37.614;15.072;2022-12-07T15:47:44;17.86;63.72
73780;SHT30;62093;37.614;15.072;2022-12-07T15:50:14;17.86;63.87
73780;SHT30;62093;37.614;15.072;2022-12-07T15:52:44;17.86;63.85
73780;SHT30;62093;37.614;15.072;2022-12-07T15:55:19;17.86;63.82
73780;SHT30;62093;37.614;15.072;2022-12-07T15:58:00;17.86;63.84
73780;SHT30;62093;37.614;15.072;2022-12-07T16:00:30;17.82;63.87
73780;SHT30;62093;37.614;15.072;2022-12-07T16:03:03;17.83;63.90
73780;SHT30;62093;37.614;15.072;2022-12-07T16:05:40;17.83;63.84
73780;SHT30;62093;37.614;15.072;2022-12-07T16:08:06;17.83;63.90
73780;SHT30;62093;37.614;15.072;2022-12-07T16:10:36;17.82;63.92
73780;SHT30;62093;37.614;15.072;2022-12-07T16:13:10;17.83;63.89
73780;SHT30;62093;37.614;15.072;2022-12-07T16:15:46;17.79;63.90
73780;SHT30;62093;37.614;15.072;2022-12-07T16:18:20;17.79;63.88
73780;SHT30;62093;37.614;15.072;2022-12-07T16:20:52;17.81;63.83
73780;SHT30;62093;37.614;15.072;2022-12-07T16:23:18;17.81;63.95
73780;SHT30;62093;37.614;15.072;2022-12-07T16:25:52;17.78;63.93
73780;SHT30;62093;37.614;15.072;2022-12-07T16:28:30;17.76;64.03
73780;SHT30;62093;37.614;15.072;2022-12-07T16:31:14;17.76;63.91
73780;SHT30;62093;37.614;15.072;2022-12-07T16:33:48;17.75;63.82
73780;SHT30;62093;37.614;15.072;2022-12-07T16:36:26;17.73;63.94
73780;SHT30;62093;37.614;15.072;2022-12-07T16:39:03;17.71;63.92
73780;SHT30;62093;37.614;15.072;2022-12-07T16:41:43;17.73;64.02
73780;SHT30;62093;37.614;15.072;2022-12-07T16:44:15;17.72;64.05
73780;SHT30;62093;37.614;15.072;2022-12-07T16:46:47;17.72;63.90
73780;SHT30;62093;37.614;15.072;2022-12-07T16:49:17;17.71;63.88
73780;SHT30;62093;37.614;15.072;2022-12-07T16:51:49;17.71;64.04
73780;SHT30;62093;37.614;15.072;2022-12-07T16:54:25;17.71;63.87
73780;SHT30;62093;37.614;15.072;2022-12-07T16:57:14;17.65;63.74
73780;SHT30;62093;37.614;15.072;2022-12-07T17:00:04;17.68;63.85
73780;SHT30;62093;37.614;15.072;2022-12-07T17:02:34;17.66;63.93
73780;SHT30;62093;37.614;15.072;2022-12-07T17:05:06;17.68;63.73
73780;SHT30;62093;37.614;15.072;2022-12-07T17:07:37;17.68;63.86
73780;SHT30;62093;37.614;15.072;2022-12-07T17:10:10;17.66;63.76
73780;SHT30;62093;37.614;15.072;2022-12-07T17:12:37;17.63;63.92
73780;SHT30;62093;37.614;15.072;2022-12-07T17:15:09;17.63;63.94
73780;SHT30;62093;37.614;15.072;2022-12-07T17:17:58;17.63;63.62
73780;SHT30;62093;37.614;15.072;2022-12-07T17:20:29;17.58;63.54
73780;SHT30;62093;37.614;15.072;2022-12-07T17:22:58;17.61;63.64
73780;SHT30;62093;37.614;15.072;2022-12-07T17:25:27;17.59;63.73
73780;SHT30;62093;37.614;15.072;2022-12-07T17:28:02;17.58;63.76
73780;SHT30;62093;37.614;15.072;2022-12-07T17:30:35;17.61;63.75
73780;SHT30;62093;37.614;15.072;2022-12-07T17:33:08;17.58;63.62
73780;SHT30;62093;37.614;15.072;2022-12-07T17:35:48;17.58;63.87
73780;SHT30;62093;37.614;15.072;2022-12-07T17:38:14;17.55;63.76
73780;SHT30;62093;37.614;15.072;2022-12-07T17:40:47;17.55;63.82
73780;SHT30;62093;37.614;15.072;2022-12-07T17:43:17;17.56;63.76
73780;SHT30;62093;37.614;15.072;2022-12-07T17:45:46;17.56;63.88
73780;SHT30;62093;37.614;15.072;2022-12-07T17:48:16;17.55;63.64
73780;SHT30;62093;37.614;15.072;2022-12-07T17:50:52;17.56;63.90
73780;SHT30;62093;37.614;15.072;2022-12-07T17:53:53;17.54;63.88
73780;SHT30;62093;37.614;15.072;2022-12-07T17:56:23;17.52;63.95
73780;SHT30;62093;37.614;15.072;2022-12-07T17:58:51;17.51;63.72
73780;SHT30;62093;37.614;15.072;2022-12-07T18:01:24;17.51;63.80
73780;SHT30;62093;37.614;15.072;2022-12-07T18:03:55;17.51;63.80
73780;SHT30;62093;37.614;15.072;2022-12-07T18:06:22;17.51;63.81
73780;SHT30;62093;37.614;15.072;2022-12-07T18:08:55;17.48;63.69
73780;SHT30;62093;37.614;15.072;2022-12-07T18:11:27;17.48;63.59
73780;SHT30;62093;37.614;15.072;2022-12-07T18:14:06;17.48;63.78
73780;SHT30;62093;37.614;15.072;2022-12-07T18:16:35;17.46;63.96
73780;SHT30;62093;37.614;15.072;2022-12-07T18:19:04;17.46;63.78
73780;SHT30;62093;37.614;15.072;2022-12-07T18:21:30;17.45;63.98
73780;SHT30;62093;37.614;15.072;2022-12-07T18:24:01;17.42;63.56
73780;SHT30;62093;37.614;15.072;2022-12-07T18:26:32;17.44;64.05
73780;SHT30;62093;37.614;15.072;2022-12-07T18:29:06;17.39;63.61
73780;SHT30;62093;37.614;15.072;2022-12-07T18:31:33;17.41;63.76
73780;SHT30;62093;37.614;15.072;2022-12-07T18:34:14;17.38;63.55
73780;SHT30;62093;37.614;15.072;2022-12-07T18:36:47;17.42;64.03
73780;SHT30;62093;37.614;15.072;2022-12-07T18:39:21;17.42;64.03